Inversion Research: Above Escarpment

*Note: All times are displayed in the local standard time of the station location.
**Rain - Equipment is designed to accurately record liquid precipitation; under conditions when precipitation is not in liquid form, the data displayed may not properly reflect rainfall values.

Date Max Temp
(°C)
Min Temp
(°C)
Avg Temp
(°C)
Rain (mm) Avg RH (%)
Thu, Jul 18, 2019 28.9 20.7 24.2 - 93.2
Wed, Jul 17, 2019 28.9 21.2 23.8 - 97.1
Tue, Jul 16, 2019 30.9 21.5 25.6 - 80.1
Mon, Jul 15, 2019 28.1 13.7 21.9 - 76.0
Sun, Jul 14, 2019 27.6 15.5 22.4 - 69.5
Sat, Jul 13, 2019 28.5 15.4 22.7 - 82.7
Fri, Jul 12, 2019 23.1 15.9 19.4 - 87.4
DateTime Avg Temp (°C) Rain (mm) RH (%)
Fri, Jul 19, 2019 09:00 26.5 - 94.8
Fri, Jul 19, 2019 08:00 25.3 - 97.9
Fri, Jul 19, 2019 07:00 24.2 - 100.0
Fri, Jul 19, 2019 06:00 24.0 - 99.9
Fri, Jul 19, 2019 05:00 24.4 - 97.3
Fri, Jul 19, 2019 04:00 24.6 - 92.8
Fri, Jul 19, 2019 03:00 24.3 - 92.3
Fri, Jul 19, 2019 02:00 23.6 - 93.5
Fri, Jul 19, 2019 01:00 23.0 - 97.5
Fri, Jul 19, 2019 00:00 22.6 - 100.0
Thu, Jul 18, 2019 23:00 22.9 - 100.0
Thu, Jul 18, 2019 22:00 23.4 - 99.5
Thu, Jul 18, 2019 21:00 24.2 - 92.3
Thu, Jul 18, 2019 20:00 26.1 - 80.3
Thu, Jul 18, 2019 19:00 28.4 - 69.9
Thu, Jul 18, 2019 18:00 28.7 - 76.0
Thu, Jul 18, 2019 17:00 28.6 - 80.2
Thu, Jul 18, 2019 16:00 27.2 - 87.4
Thu, Jul 18, 2019 15:00 25.9 - 92.2
Thu, Jul 18, 2019 14:00 26.3 - 91.3
Thu, Jul 18, 2019 13:00 26.8 - 90.2
Thu, Jul 18, 2019 12:00 26.5 - 87.0
Thu, Jul 18, 2019 11:00 25.4 - 92.1
Thu, Jul 18, 2019 10:00 24.2 - 98.4
Thu, Jul 18, 2019 09:00 22.5 - 100.0
Thu, Jul 18, 2019 08:00 21.8 - 100.0
Thu, Jul 18, 2019 07:00 21.5 - 100.0
Thu, Jul 18, 2019 06:00 21.7 - 100.0
Thu, Jul 18, 2019 05:00 21.9 - 100.0
Thu, Jul 18, 2019 04:00 21.8 - 100.0
Thu, Jul 18, 2019 03:00 21.5 - 100.0
Thu, Jul 18, 2019 02:00 21.0 - 100.0
Thu, Jul 18, 2019 01:00 21.0 - 100.0
Thu, Jul 18, 2019 00:00 21.3 - 100.0
Wed, Jul 17, 2019 23:00 21.7 - 100.0
Wed, Jul 17, 2019 22:00 22.3 - 100.0
Wed, Jul 17, 2019 21:00 24.0 - 97.1
Wed, Jul 17, 2019 20:00 25.7 - 91.8
Wed, Jul 17, 2019 19:00 27.1 - 87.6
Wed, Jul 17, 2019 18:00 28.3 - 83.6
Wed, Jul 17, 2019 17:00 27.8 - 83.1
Wed, Jul 17, 2019 16:00 26.4 - 91.0
Wed, Jul 17, 2019 15:00 25.7 - 95.2
Wed, Jul 17, 2019 14:00 24.5 - 100.0
Wed, Jul 17, 2019 13:00 24.2 - 100.0
Wed, Jul 17, 2019 12:00 23.3 - 100.0
Wed, Jul 17, 2019 11:00 23.0 - 100.0
Wed, Jul 17, 2019 10:00 22.9 - 100.0


asterix Register now to access more data! asterix